createdAt,value
2023-04-13T00:00:03.433Z,98914.88
2023-04-13T00:01:10.476Z,98921.97
2023-04-13T00:02:04.498Z,98916.94
2023-04-13T00:03:00.551Z,98919.78
2023-04-13T00:03:54.667Z,98921.28
2023-04-13T00:04:49.514Z,98919.59
2023-04-13T00:05:44.564Z,98917.25
2023-04-13T00:06:31.461Z,98885.19
2023-04-13T00:07:05.592Z,98919.44
2023-04-13T00:07:54.479Z,98922.66
2023-04-13T00:08:30.673Z,98919.28
2023-04-13T00:09:17.435Z,98914.19
2023-04-13T00:09:51.496Z,98917.38
2023-04-13T00:10:42.443Z,98920.28
2023-04-13T00:11:17.757Z,98915.53
2023-04-13T00:11:58.458Z,98905.97
2023-04-13T00:12:38.571Z,98901.72
2023-04-13T00:13:19.421Z,98908.81
2023-04-13T00:13:59.739Z,98919.78
2023-04-13T00:14:40.437Z,98908.81
2023-04-13T00:15:28.075Z,98908.16
2023-04-13T00:16:09.397Z,98922.34
2023-04-13T00:16:50.192Z,98924.69
2023-04-13T00:17:33.553Z,98919.63
2023-04-13T00:18:13.554Z,98923.88
2023-04-13T00:18:54.429Z,98922.34
2023-04-13T00:19:36.716Z,98921.97
2023-04-13T00:20:21.422Z,98919.13
2023-04-13T00:21:01.520Z,98900.69
2023-04-13T00:21:43.504Z,98920.09
2023-04-13T00:22:23.731Z,98909.13
2023-04-13T00:23:04.465Z,98912.16
2023-04-13T00:23:44.745Z,98914.88
2023-04-13T00:24:26.469Z,98919.13
2023-04-13T00:25:06.536Z,98907.41
2023-04-13T00:25:46.403Z,98915.53
2023-04-13T00:26:26.520Z,98921.78
2023-04-13T00:27:07.471Z,98905.56
2023-04-13T00:27:49.543Z,98916.59
2023-04-13T00:28:30.432Z,98922.47
2023-04-13T00:29:10.493Z,98925.84
2023-04-13T00:29:50.422Z,98915.00
2023-04-13T00:30:30.529Z,98887.47
2023-04-13T00:31:11.497Z,98906.75
2023-04-13T00:31:51.644Z,98914.53
2023-04-13T00:32:33.452Z,98918.59
2023-04-13T00:33:13.688Z,98917.06
2023-04-13T00:33:54.421Z,98917.91
2023-04-13T00:34:34.524Z,98913.50
2023-04-13T00:35:17.368Z,98916.56
2023-04-13T00:35:57.546Z,98922.13
2023-04-13T00:36:37.405Z,98907.41
2023-04-13T00:37:18.678Z,98914.19
2023-04-13T00:37:59.377Z,98918.09
2023-04-13T00:38:40.595Z,98911.16
2023-04-13T00:39:22.523Z,98917.41
2023-04-13T00:40:06.037Z,98917.06
2023-04-13T00:40:47.409Z,98914.53
2023-04-13T00:41:27.834Z,98917.91
2023-04-13T00:42:08.382Z,98900.31
2023-04-13T00:43:04.453Z,98908.63
2023-04-13T00:43:59.639Z,98915.25
2023-04-13T00:44:46.431Z,98908.28
2023-04-13T00:45:20.500Z,98901.34
2023-04-13T00:46:07.481Z,98894.75
2023-04-13T00:46:42.692Z,98899.66
2023-04-13T00:47:35.476Z,98906.09
2023-04-13T00:48:12.636Z,98908.13
2023-04-13T00:49:02.351Z,98899.66
2023-04-13T00:49:37.689Z,98904.75
2023-04-13T00:50:17.446Z,98896.31
2023-04-13T00:50:57.522Z,98896.19
2023-04-13T00:51:39.379Z,98897.38
2023-04-13T00:52:19.472Z,98897.69
2023-04-13T00:52:59.615Z,98902.47
2023-04-13T00:53:40.272Z,98901.06
2023-04-13T00:54:22.400Z,98895.31
2023-04-13T00:55:04.567Z,98888.88
2023-04-13T00:55:48.417Z,98896.97
2023-04-13T00:56:29.485Z,98897.28
2023-04-13T00:57:10.399Z,98877.72
2023-04-13T00:57:52.473Z,98897.34
2023-04-13T00:58:34.386Z,98884.50
2023-04-13T00:59:18.515Z,98895.59
2023-04-13T00:59:59.381Z,98900.00
2023-04-13T01:00:39.639Z,98903.38
2023-04-13T01:01:19.522Z,98890.56
2023-04-13T01:02:05.327Z,98893.78
2023-04-13T01:02:49.613Z,98891.78
2023-04-13T01:03:29.925Z,98895.84
2023-04-13T01:04:12.418Z,98865.09
2023-04-13T01:04:52.467Z,98885.66
2023-04-13T01:05:36.409Z,98889.53
2023-04-13T01:06:42.580Z,98866.97
2023-04-13T01:08:07.356Z,98881.66
2023-04-13T01:09:19.416Z,98862.94
2023-04-13T01:10:52.380Z,98872.50
2023-04-13T01:12:09.412Z,98871.34
2023-04-13T01:13:37.358Z,98870.19
2023-04-13T01:14:51.377Z,98875.94
2023-04-13T01:15:52.477Z,98872.72
2023-04-13T01:16:57.371Z,98877.44
2023-04-13T01:17:40.410Z,98869.81
2023-04-13T01:18:21.473Z,98867.97
2023-04-13T01:19:02.362Z,98866.13
2023-04-13T01:19:52.215Z,98870.84
2023-04-13T01:20:35.347Z,98865.63
2023-04-13T01:21:19.383Z,98880.16
2023-04-13T01:22:01.367Z,98854.47
2023-04-13T01:22:52.386Z,98872.91
2023-04-13T01:24:16.358Z,98876.78
2023-04-13T01:25:32.367Z,98877.16
2023-04-13T01:26:29.382Z,98878.81
2023-04-13T01:27:48.407Z,98883.22
2023-04-13T01:28:29.675Z,98887.28
2023-04-13T01:29:10.217Z,98877.31
2023-04-13T01:29:53.380Z,98888.31
2023-04-13T01:30:35.866Z,98875.09
2023-04-13T01:31:18.365Z,98872.44
2023-04-13T01:31:58.451Z,98879.84
2023-04-13T01:32:39.408Z,98882.72
2023-04-13T01:33:21.602Z,98889.28
2023-04-13T01:34:02.391Z,98857.06
2023-04-13T01:34:42.446Z,98885.94
2023-04-13T01:35:25.398Z,98876.13
2023-04-13T01:36:06.475Z,98887.31
2023-04-13T01:36:48.370Z,98896.44
2023-04-13T01:37:29.710Z,98890.00
2023-04-13T01:38:11.372Z,98879.84
2023-04-13T01:38:51.392Z,98887.63
2023-04-13T01:39:32.403Z,98887.63
2023-04-13T01:40:14.469Z,98872.44
2023-04-13T01:40:55.359Z,98893.41
2023-04-13T01:41:35.510Z,98887.16
2023-04-13T01:42:15.331Z,98890.00
2023-04-13T01:42:56.161Z,98897.09
2023-04-13T01:43:37.374Z,98898.28
2023-04-13T01:44:18.123Z,98898.97
2023-04-13T01:44:59.576Z,98895.06
2023-04-13T01:46:15.655Z,98903.72
2023-04-13T01:47:00.353Z,98902.69
2023-04-13T01:47:41.546Z,98906.09
2023-04-13T01:48:39.336Z,98897.63
2023-04-13T01:49:22.826Z,98906.56
2023-04-13T01:50:24.367Z,98894.25
2023-04-13T01:51:10.406Z,98901.34
2023-04-13T01:51:52.328Z,98900.84
2023-04-13T01:52:33.408Z,98892.03
2023-04-13T01:53:18.337Z,98896.44
2023-04-13T01:54:11.217Z,98908.63
2023-04-13T01:54:53.402Z,98893.72
2023-04-13T01:55:40.438Z,98892.88
2023-04-13T01:56:34.324Z,98894.41
2023-04-13T01:57:29.337Z,98884.25
2023-04-13T01:58:25.363Z,98896.41
2023-04-13T01:59:19.356Z,98892.34
2023-04-13T02:00:13.333Z,98890.31
2023-04-13T02:01:03.405Z,98897.09
2023-04-13T02:01:37.403Z,98894.38
2023-04-13T02:02:24.516Z,98898.94
2023-04-13T02:02:58.601Z,98905.72
2023-04-13T02:03:45.476Z,98900.81
2023-04-13T02:04:19.960Z,98898.81
2023-04-13T02:05:07.310Z,98900.13
2023-04-13T02:05:42.433Z,98902.50
2023-04-13T02:06:22.324Z,98906.88
2023-04-13T02:07:02.727Z,98906.56
2023-04-13T02:07:43.326Z,98902.81
2023-04-13T02:08:23.816Z,98899.44
2023-04-13T02:09:04.337Z,98901.09
2023-04-13T02:09:45.304Z,98893.31
2023-04-13T02:10:27.318Z,98901.09
2023-04-13T02:11:08.608Z,98893.00
2023-04-13T02:11:50.364Z,98891.31
2023-04-13T02:12:30.400Z,98892.28
2023-04-13T02:13:11.337Z,98892.94
2023-04-13T02:13:51.534Z,98890.94
2023-04-13T02:14:31.323Z,98888.75
2023-04-13T02:15:12.422Z,98894.34
2023-04-13T02:15:53.294Z,98892.28
2023-04-13T02:16:33.440Z,98883.16
2023-04-13T02:17:15.339Z,98897.38
2023-04-13T02:17:55.513Z,98894.66
2023-04-13T02:18:35.432Z,98890.25
2023-04-13T02:19:15.368Z,98887.22
2023-04-13T02:19:56.361Z,98894.97
2023-04-13T02:20:40.476Z,98900.38
2023-04-13T02:21:21.307Z,98892.09
2023-04-13T02:22:01.475Z,98898.69
2023-04-13T02:22:41.348Z,98882.81
2023-04-13T02:23:21.399Z,98880.75
2023-04-13T02:24:01.443Z,98892.91
2023-04-13T02:24:42.241Z,98877.25
2023-04-13T02:25:24.299Z,98885.47
2023-04-13T02:26:07.394Z,98893.41
2023-04-13T02:26:48.295Z,98893.41
2023-04-13T02:27:29.026Z,98890.91
2023-04-13T02:28:09.363Z,98893.91
2023-04-13T02:28:51.422Z,98889.84
2023-04-13T02:29:32.375Z,98892.88
2023-04-13T02:30:19.414Z,98895.28
2023-04-13T02:31:03.353Z,98894.56
2023-04-13T02:31:44.241Z,98887.09
2023-04-13T02:32:25.305Z,98887.59
2023-04-13T02:33:05.400Z,98896.56
2023-04-13T02:33:46.423Z,98893.53
2023-04-13T02:34:26.442Z,98884.06
2023-04-13T02:35:07.275Z,98890.50
2023-04-13T02:35:47.373Z,98895.22
2023-04-13T02:36:28.627Z,98889.50
2023-04-13T02:37:09.556Z,98885.09
2023-04-13T02:37:50.315Z,98892.88
2023-04-13T02:38:30.393Z,98896.75
2023-04-13T02:39:10.304Z,98886.44
2023-04-13T02:39:50.354Z,98896.06
2023-04-13T02:40:30.397Z,98883.94
2023-04-13T02:41:10.805Z,98899.13
2023-04-13T02:41:51.286Z,98892.38
2023-04-13T02:42:31.429Z,98902.00
2023-04-13T02:43:12.290Z,98896.09
2023-04-13T02:43:52.579Z,98899.97
2023-04-13T02:44:33.387Z,98901.31
2023-04-13T02:45:17.998Z,98896.38
2023-04-13T02:45:59.388Z,98897.91
2023-04-13T02:46:40.131Z,98897.72
2023-04-13T02:47:20.344Z,98900.25
2023-04-13T02:48:00.464Z,98902.63
2023-04-13T02:48:40.277Z,98906.03
2023-04-13T02:49:20.415Z,98905.16
2023-04-13T02:50:01.308Z,98912.75
2023-04-13T02:50:41.535Z,98904.31
2023-04-13T02:51:21.243Z,98886.22
2023-04-13T02:52:01.521Z,98907.13
2023-04-13T02:52:41.306Z,98900.03
2023-04-13T02:53:24.639Z,98884.97
2023-04-13T02:54:05.328Z,98901.91
2023-04-13T02:54:46.680Z,98894.13
2023-04-13T02:55:27.321Z,98894.75
2023-04-13T02:56:07.768Z,98898.50
2023-04-13T02:56:47.276Z,98896.50
2023-04-13T02:57:28.358Z,98899.53
2023-04-13T02:58:11.302Z,98885.16
2023-04-13T02:58:51.725Z,98891.72
2023-04-13T02:59:32.309Z,98888.38
2023-04-13T03:00:16.052Z,98891.72
2023-04-13T03:00:57.341Z,98902.31
2023-04-13T03:01:37.646Z,98895.34
2023-04-13T03:02:21.306Z,98900.56
2023-04-13T03:03:03.495Z,98881.59
2023-04-13T03:03:44.266Z,98898.28
2023-04-13T03:04:24.437Z,98890.13
2023-04-13T03:05:06.332Z,98892.50
2023-04-13T03:05:46.396Z,98896.50
2023-04-13T03:06:29.291Z,98899.91
2023-04-13T03:07:14.307Z,98892.63
2023-04-13T03:07:55.261Z,98895.16
2023-04-13T03:08:35.509Z,98890.75
2023-04-13T03:09:15.275Z,98887.53
2023-04-13T03:09:55.339Z,98890.69
2023-04-13T03:10:38.315Z,98892.94
2023-04-13T03:11:18.404Z,98882.94
2023-04-13T03:11:59.289Z,98890.97
2023-04-13T03:12:39.407Z,98888.75
2023-04-13T03:13:19.264Z,98893.81
2023-04-13T03:14:01.613Z,98895.34
2023-04-13T03:14:43.271Z,98899.19
2023-04-13T03:15:24.548Z,98895.16
2023-04-13T03:16:07.291Z,98902.75
2023-04-13T03:16:47.408Z,98889.22
2023-04-13T03:17:27.401Z,98889.91
2023-04-13T03:18:07.389Z,98892.09
2023-04-13T03:18:49.227Z,98900.56
2023-04-13T03:19:30.230Z,98887.34
2023-04-13T03:20:15.270Z,98896.19
2023-04-13T03:20:55.770Z,98892.09
2023-04-13T03:21:36.248Z,98868.13
2023-04-13T03:22:16.411Z,98895.81
2023-04-13T03:22:58.272Z,98890.06
2023-04-13T03:23:38.330Z,98885.28
2023-04-13T03:24:19.243Z,98886.00
2023-04-13T03:24:59.335Z,98884.63
2023-04-13T03:25:40.243Z,98882.56
2023-04-13T03:26:20.960Z,98880.06
2023-04-13T03:27:03.256Z,98870.78
2023-04-13T03:27:43.373Z,98890.06
2023-04-13T03:28:26.268Z,98859.31
2023-04-13T03:29:06.999Z,98877.53
2023-04-13T03:29:48.256Z,98889.34
2023-04-13T03:30:29.219Z,98883.22
2023-04-13T03:31:10.281Z,98885.59
2023-04-13T03:31:51.148Z,98886.44
2023-04-13T03:32:32.392Z,98849.16
2023-04-13T03:33:12.334Z,98884.94
2023-04-13T03:33:53.300Z,98885.97
2023-04-13T03:34:33.415Z,98888.69
2023-04-13T03:35:14.219Z,98884.38
2023-04-13T03:35:54.349Z,98896.19
2023-04-13T03:36:35.219Z,98891.09
2023-04-13T03:37:15.762Z,98892.44
2023-04-13T03:37:57.293Z,98889.22
2023-04-13T03:38:37.522Z,98875.09
2023-04-13T03:39:18.269Z,98899.22
2023-04-13T03:39:59.342Z,98890.63
2023-04-13T03:40:39.240Z,98889.41
2023-04-13T03:41:19.338Z,98882.56
2023-04-13T03:41:59.244Z,98897.53
2023-04-13T03:42:39.504Z,98903.63
2023-04-13T03:43:20.262Z,98899.75
2023-04-13T03:44:00.595Z,98899.22
2023-04-13T03:44:41.310Z,98888.75
2023-04-13T03:45:21.406Z,98899.22
2023-04-13T03:46:01.262Z,98896.88
2023-04-13T03:46:42.566Z,98899.59
2023-04-13T03:47:23.330Z,98887.78
2023-04-13T03:48:03.598Z,98906.88
2023-04-13T03:48:43.220Z,98905.06
2023-04-13T03:49:23.312Z,98899.34
2023-04-13T03:50:03.235Z,98899.34
2023-04-13T03:50:43.333Z,98911.66
2023-04-13T03:51:28.287Z,98908.34
2023-04-13T03:52:08.331Z,98909.19
2023-04-13T03:52:48.227Z,98900.72
2023-04-13T03:53:28.335Z,98911.56
2023-04-13T03:54:08.222Z,98914.28
2023-04-13T03:54:48.398Z,98916.28
2023-04-13T03:55:29.308Z,98912.91
2023-04-13T03:56:09.623Z,98919.66
2023-04-13T03:56:49.280Z,98922.50
2023-04-13T03:57:29.315Z,98927.75
2023-04-13T03:58:10.605Z,98929.06
2023-04-13T03:58:50.357Z,98918.97
2023-04-13T03:59:31.213Z,98917.63
2023-04-13T04:00:14.392Z,98933.88
2023-04-13T04:00:54.290Z,98921.00
2023-04-13T04:01:34.366Z,98934.84
2023-04-13T04:02:15.252Z,98937.03
2023-04-13T04:02:55.593Z,98929.44
2023-04-13T04:03:36.352Z,98937.56
2023-04-13T04:04:16.609Z,98941.25
2023-04-13T04:04:57.266Z,98931.44
2023-04-13T04:05:40.532Z,98933.63
2023-04-13T04:06:20.236Z,98922.47
2023-04-13T04:07:00.313Z,98930.09
2023-04-13T04:07:41.242Z,98930.75
2023-04-13T04:08:21.364Z,98936.19
2023-04-13T04:09:01.187Z,98932.44
2023-04-13T04:09:41.698Z,98927.00
2023-04-13T04:10:24.231Z,98921.63
2023-04-13T04:11:04.871Z,98912.88
2023-04-13T04:11:46.245Z,98907.50
2023-04-13T04:12:26.358Z,98928.22
2023-04-13T04:13:06.239Z,98931.63
2023-04-13T04:13:46.365Z,98934.50
2023-04-13T04:14:27.260Z,98932.47
2023-04-13T04:15:07.848Z,98927.06
2023-04-13T04:15:49.243Z,98926.06
2023-04-13T04:16:30.134Z,98934.88
2023-04-13T04:17:10.204Z,98930.31
2023-04-13T04:17:51.307Z,98913.25
2023-04-13T04:18:31.205Z,98916.97
2023-04-13T04:19:11.342Z,98916.47
2023-04-13T04:19:52.247Z,98933.53
2023-04-13T04:20:33.362Z,98926.44
2023-04-13T04:21:14.288Z,98932.16
2023-04-13T04:21:57.837Z,98936.56
2023-04-13T04:22:41.220Z,98936.22
2023-04-13T04:23:23.117Z,98922.34
2023-04-13T04:24:04.227Z,98929.44
2023-04-13T04:24:44.859Z,98926.41
2023-04-13T04:25:29.234Z,98931.31
2023-04-13T04:26:09.317Z,98921.31
2023-04-13T04:26:49.227Z,98921.63
2023-04-13T04:27:31.713Z,98921.28
2023-04-13T04:28:14.173Z,98917.25
2023-04-13T04:29:01.553Z,98921.63
2023-04-13T04:29:42.218Z,98916.88
2023-04-13T04:30:22.503Z,98923.97
2023-04-13T04:31:03.194Z,98921.28
2023-04-13T04:31:44.256Z,98919.25
2023-04-13T04:32:26.435Z,98914.34
2023-04-13T04:33:10.673Z,98915.53
2023-04-13T04:33:51.263Z,98919.72
2023-04-13T04:34:31.705Z,98919.59
2023-04-13T04:35:14.274Z,98916.53
2023-04-13T04:35:58.444Z,98915.53
2023-04-13T04:36:39.180Z,98887.28
2023-04-13T04:37:23.349Z,98918.88
2023-04-13T04:38:04.224Z,98915.53
2023-04-13T04:38:44.414Z,98915.16
2023-04-13T04:39:29.429Z,98906.56
2023-04-13T04:40:11.318Z,98920.22
2023-04-13T04:40:52.284Z,98919.56
2023-04-13T04:41:32.892Z,98908.06
2023-04-13T04:42:14.235Z,98922.56
2023-04-13T04:42:54.287Z,98915.47
2023-04-13T04:43:37.223Z,98917.84
2023-04-13T04:44:17.312Z,98917.16
2023-04-13T04:44:58.355Z,98902.31
2023-04-13T04:45:38.620Z,98918.03
2023-04-13T04:46:22.377Z,98913.97
2023-04-13T04:47:04.311Z,98916.00
2023-04-13T04:47:48.157Z,98914.50
2023-04-13T04:48:31.722Z,98927.34
2023-04-13T04:49:13.167Z,98912.28
2023-04-13T04:49:53.230Z,98916.81
2023-04-13T04:50:34.231Z,98923.59
2023-04-13T04:51:14.279Z,98918.22
2023-04-13T04:51:58.253Z,98928.53
2023-04-13T04:52:38.665Z,98918.03
2023-04-13T04:53:19.207Z,98923.13
2023-04-13T04:54:02.135Z,98925.97
2023-04-13T04:54:43.144Z,98929.84
2023-04-13T04:55:23.295Z,98932.44
2023-04-13T04:56:03.173Z,98929.72
2023-04-13T04:56:43.261Z,98924.16
2023-04-13T04:57:25.163Z,98918.47
2023-04-13T04:58:05.355Z,98928.47
2023-04-13T04:58:45.183Z,98924.41
2023-04-13T04:59:26.291Z,98924.91
2023-04-13T05:00:09.386Z,98923.22
2023-04-13T05:00:49.879Z,98933.22
2023-04-13T05:01:33.334Z,98924.91
2023-04-13T05:02:13.346Z,98930.00
2023-04-13T05:02:55.251Z,98933.34
2023-04-13T05:03:35.250Z,98923.38
2023-04-13T05:04:16.164Z,98926.75
2023-04-13T05:04:57.401Z,98933.88
2023-04-13T05:05:38.222Z,98930.84
2023-04-13T05:06:18.326Z,98932.66
2023-04-13T05:06:58.164Z,98927.75
2023-04-13T05:07:38.363Z,98936.03
2023-04-13T05:08:18.145Z,98925.25
2023-04-13T05:08:58.636Z,98938.59
2023-04-13T05:09:41.167Z,98935.19
2023-04-13T05:10:24.478Z,98941.28
2023-04-13T05:11:05.232Z,98932.34
2023-04-13T05:11:45.527Z,98942.47
2023-04-13T05:12:25.183Z,98944.97
2023-04-13T05:13:05.258Z,98948.00
2023-04-13T05:13:46.199Z,98942.94
2023-04-13T05:14:26.550Z,98945.13
2023-04-13T05:15:06.153Z,98937.69
2023-04-13T05:15:46.394Z,98947.66
2023-04-13T05:16:26.201Z,98949.84
2023-04-13T05:17:07.360Z,98950.19
2023-04-13T05:17:48.177Z,98942.47
2023-04-13T05:18:28.255Z,98948.50
2023-04-13T05:19:10.139Z,98948.66
2023-04-13T05:19:51.244Z,98949.31
2023-04-13T05:20:34.180Z,98948.66
2023-04-13T05:21:14.692Z,98946.59
2023-04-13T05:21:56.158Z,98946.28
2023-04-13T05:22:36.424Z,98945.94
2023-04-13T05:23:16.188Z,98943.94
2023-04-13T05:23:56.978Z,98940.22
2023-04-13T05:24:37.190Z,98948.34
2023-04-13T05:25:17.424Z,98943.56
2023-04-13T05:26:00.280Z,98943.41
2023-04-13T05:26:41.311Z,98954.72
2023-04-13T05:27:22.184Z,98952.72
2023-04-13T05:28:02.354Z,98957.31
2023-04-13T05:28:42.238Z,98952.72
2023-04-13T05:29:22.308Z,98958.47
2023-04-13T05:30:04.140Z,98947.97
2023-04-13T05:30:44.646Z,98953.72
2023-04-13T05:31:24.288Z,98955.75
2023-04-13T05:32:07.664Z,98929.72
2023-04-13T05:32:50.343Z,98949.28
2023-04-13T05:33:31.139Z,98958.09
2023-04-13T05:34:12.220Z,98959.41
2023-04-13T05:34:52.596Z,98945.91
2023-04-13T05:35:35.228Z,98953.84
2023-04-13T05:36:16.273Z,98956.56
2023-04-13T05:36:57.233Z,98950.13
2023-04-13T05:37:50.513Z,98952.53
2023-04-13T05:38:31.187Z,98963.50
2023-04-13T05:39:11.199Z,98952.66
2023-04-13T05:39:52.137Z,98952.66
2023-04-13T05:40:36.177Z,98950.97
2023-04-13T05:41:17.170Z,98948.09
2023-04-13T05:42:03.246Z,98960.47
2023-04-13T05:42:44.114Z,98956.41
2023-04-13T05:43:24.313Z,98953.63
2023-04-13T05:44:04.189Z,98952.09
2023-04-13T05:44:44.633Z,98956.28
2023-04-13T05:45:26.274Z,98942.47
2023-04-13T05:46:06.757Z,98953.91
2023-04-13T05:46:48.268Z,98953.38
2023-04-13T05:47:29.391Z,98948.84
2023-04-13T05:48:11.102Z,98962.59
2023-04-13T05:48:51.482Z,98935.56
2023-04-13T05:49:31.130Z,98954.28
2023-04-13T05:50:13.011Z,98953.97
2023-04-13T05:50:54.235Z,98953.59
2023-04-13T05:51:48.175Z,98937.19
2023-04-13T05:52:42.154Z,98953.56
2023-04-13T05:53:36.187Z,98947.44
2023-04-13T05:54:30.087Z,98929.19
2023-04-13T05:55:26.127Z,98957.06
2023-04-13T05:56:14.162Z,98950.59
2023-04-13T05:56:48.266Z,98952.78
2023-04-13T05:57:35.126Z,98951.25
2023-04-13T05:58:11.027Z,98951.75
2023-04-13T05:59:00.325Z,98945.69
2023-04-13T05:59:34.771Z,98952.53
2023-04-13T06:00:25.140Z,98952.06
2023-04-13T06:00:59.224Z,98949.88
2023-04-13T06:02:43.224Z,98956.59
2023-04-13T06:03:17.928Z,98947.41
2023-04-13T06:04:07.190Z,98951.66
2023-04-13T06:04:41.844Z,98951.13
2023-04-13T06:05:31.113Z,98957.69
2023-04-13T06:06:06.241Z,98954.97
2023-04-13T06:06:54.152Z,98932.06
2023-04-13T06:07:29.190Z,98958.69
2023-04-13T06:08:10.102Z,98953.25
2023-04-13T06:08:53.075Z,98956.88
2023-04-13T06:09:34.151Z,98954.00
2023-04-13T06:10:16.825Z,98951.97
2023-04-13T06:10:58.139Z,98954.25
2023-04-13T06:11:38.242Z,98948.81
2023-04-13T06:12:19.103Z,98960.63
2023-04-13T06:12:59.389Z,98950.13
2023-04-13T06:13:39.146Z,98959.78
2023-04-13T06:14:22.443Z,98961.78
2023-04-13T06:15:03.148Z,98958.66
2023-04-13T06:15:44.285Z,98960.97
2023-04-13T06:16:28.167Z,98960.56
2023-04-13T06:17:08.342Z,98955.00
2023-04-13T06:17:49.129Z,98961.28
2023-04-13T06:18:31.218Z,98960.94
2023-04-13T06:19:12.177Z,98958.69
2023-04-13T06:19:52.205Z,98958.88
2023-04-13T06:20:33.100Z,98960.41
2023-04-13T06:21:14.250Z,98940.31
2023-04-13T06:21:54.219Z,98964.84
2023-04-13T06:22:34.224Z,98957.38
2023-04-13T06:23:14.144Z,98957.19
2023-04-13T06:23:54.198Z,98955.44
2023-04-13T06:24:35.067Z,98962.91
2023-04-13T06:25:16.760Z,98951.75
2023-04-13T06:25:58.093Z,98959.66
2023-04-13T06:26:38.545Z,98954.22
2023-04-13T06:27:19.114Z,98962.28
2023-04-13T06:28:00.211Z,98952.28
2023-04-13T06:28:41.147Z,98956.31
2023-04-13T06:29:21.289Z,98957.81
2023-04-13T06:30:03.111Z,98959.09
2023-04-13T06:30:43.527Z,98952.16
2023-04-13T06:31:23.247Z,98960.13
2023-04-13T06:32:04.498Z,98949.66
2023-04-13T06:32:45.136Z,98953.22
2023-04-13T06:33:26.299Z,98956.66
2023-04-13T06:34:07.052Z,98955.31
2023-04-13T06:34:47.223Z,98955.94
2023-04-13T06:35:27.122Z,98954.84
2023-04-13T06:36:07.509Z,98959.06
2023-04-13T06:36:48.063Z,98953.25
2023-04-13T06:37:22.283Z,98954.97
2023-04-13T06:38:10.148Z,98958.09
2023-04-13T06:38:44.272Z,98953.75
2023-04-13T06:39:32.811Z,98941.03
2023-04-13T06:40:12.572Z,98948.56
2023-04-13T06:40:54.153Z,98932.28
2023-04-13T06:41:28.234Z,98942.06
2023-04-13T06:42:02.175Z,98944.41
2023-04-13T06:42:43.068Z,98953.94
2023-04-13T06:43:29.122Z,98947.00
2023-04-13T06:44:05.046Z,98947.78
2023-04-13T06:44:46.060Z,98944.69
2023-04-13T06:45:20.686Z,98949.88
2023-04-13T06:46:06.261Z,98951.22
2023-04-13T06:46:46.329Z,98951.38
2023-04-13T06:47:30.760Z,98950.09
2023-04-13T06:48:12.224Z,98945.53
2023-04-13T06:48:53.050Z,98953.00
2023-04-13T06:49:33.921Z,98951.81
2023-04-13T06:50:17.075Z,98953.00
2023-04-13T06:50:57.533Z,98947.88
2023-04-13T06:51:39.088Z,98947.69
2023-04-13T06:52:19.160Z,98953.06
2023-04-13T06:53:00.679Z,98961.31
2023-04-13T06:53:41.460Z,98955.50
2023-04-13T06:54:22.070Z,98937.72
2023-04-13T06:55:02.278Z,98955.13
2023-04-13T06:55:42.051Z,98952.72
2023-04-13T06:56:23.192Z,98961.91
2023-04-13T06:57:04.070Z,98956.53
2023-04-13T06:57:44.227Z,98957.66
2023-04-13T06:58:24.047Z,98953.56
2023-04-13T06:59:04.326Z,98959.94
2023-04-13T06:59:45.069Z,98962.63
2023-04-13T07:00:29.628Z,98960.19
2023-04-13T07:01:11.227Z,98961.66
2023-04-13T07:01:51.505Z,98961.31
2023-04-13T07:02:35.276Z,98950.44
2023-04-13T07:03:15.272Z,98949.72
2023-04-13T07:03:55.087Z,98956.81
2023-04-13T07:04:37.194Z,98959.94
2023-04-13T07:05:18.096Z,98961.38
2023-04-13T07:05:58.203Z,98941.94
2023-04-13T07:06:39.078Z,98964.28
2023-04-13T07:07:19.196Z,98965.59
2023-04-13T07:07:59.125Z,98968.13
2023-04-13T07:08:41.336Z,98961.13
2023-04-13T07:09:22.120Z,98963.25
2023-04-13T07:10:03.201Z,98961.28
2023-04-13T07:10:46.045Z,98956.22
2023-04-13T07:11:26.601Z,98972.34
2023-04-13T07:12:11.095Z,98974.47
2023-04-13T07:12:52.118Z,98961.66
2023-04-13T07:13:33.055Z,98972.91
2023-04-13T07:14:13.243Z,98969.06
2023-04-13T07:14:54.057Z,98979.44
2023-04-13T07:15:34.223Z,98972.81
2023-04-13T07:16:16.119Z,98984.03
2023-04-13T07:17:00.067Z,98978.06
2023-04-13T07:17:44.111Z,98978.44
2023-04-13T07:18:24.138Z,98975.06
2023-04-13T07:19:07.095Z,98979.47
2023-04-13T07:19:53.156Z,98981.25
2023-04-13T07:20:33.060Z,98980.88
2023-04-13T07:21:14.195Z,98976.09
2023-04-13T07:21:54.086Z,98978.00
2023-04-13T07:22:38.239Z,98980.91
2023-04-13T07:23:18.047Z,98979.09
2023-04-13T07:23:58.144Z,98983.38
2023-04-13T07:24:41.038Z,98978.25
2023-04-13T07:25:22.132Z,98981.63
2023-04-13T07:26:02.061Z,98989.19
2023-04-13T07:26:42.241Z,98991.09
2023-04-13T07:27:22.097Z,98983.69
2023-04-13T07:28:02.306Z,98989.13
2023-04-13T07:28:42.081Z,98982.41
2023-04-13T07:29:23.155Z,98991.72
2023-04-13T07:30:03.089Z,98979.66
2023-04-13T07:30:43.161Z,98989.50
2023-04-13T07:31:23.117Z,98986.38
2023-04-13T07:32:08.308Z,98988.38
2023-04-13T07:32:48.113Z,98990.44
2023-04-13T07:33:29.147Z,98984.16
2023-04-13T07:34:10.022Z,98982.91
2023-04-13T07:34:50.128Z,98970.00
2023-04-13T07:35:30.138Z,98988.72
2023-04-13T07:36:11.512Z,98982.94
2023-04-13T07:36:53.074Z,98989.97
2023-04-13T07:37:34.206Z,98989.47
2023-04-13T07:38:14.104Z,98990.88
2023-04-13T07:38:54.248Z,98992.91
2023-04-13T07:39:35.066Z,98986.09
2023-04-13T07:40:16.704Z,98985.31
2023-04-13T07:40:58.111Z,98985.25
2023-04-13T07:41:39.280Z,98992.56
2023-04-13T07:42:19.072Z,98993.97
2023-04-13T07:42:59.178Z,98991.16
2023-04-13T07:43:41.058Z,98992.13
2023-04-13T07:44:21.218Z,98997.44
2023-04-13T07:45:13.295Z,99003.56
2023-04-13T07:45:47.186Z,99000.81
2023-04-13T07:46:33.228Z,99010.19
2023-04-13T07:47:14.234Z,99016.28
2023-04-13T07:47:55.167Z,99000.72
2023-04-13T07:48:36.214Z,99015.03
2023-04-13T07:49:16.303Z,99016.72
2023-04-13T07:49:57.115Z,99007.34
2023-04-13T07:50:37.976Z,99009.81
2023-04-13T07:51:28.275Z,99015.16
2023-04-13T07:52:09.059Z,99018.72
2023-04-13T07:52:50.128Z,99017.88
2023-04-13T07:53:31.006Z,99018.41
2023-04-13T07:54:11.168Z,99022.56
2023-04-13T07:54:51.078Z,99024.44
2023-04-13T07:55:31.146Z,99018.06
2023-04-13T07:56:12.057Z,99025.47
2023-04-13T07:56:52.332Z,99014.25
2023-04-13T07:57:34.074Z,99012.69
2023-04-13T07:58:14.362Z,99017.88
2023-04-13T07:58:54.103Z,99019.63
2023-04-13T07:59:34.184Z,99017.88
2023-04-13T08:00:15.053Z,99017.28
2023-04-13T08:00:55.190Z,99024.59
2023-04-13T08:01:36.000Z,99021.88
2023-04-13T08:02:48.195Z,99029.69
2023-04-13T08:03:28.286Z,99025.63
2023-04-13T08:04:09.216Z,99022.34
2023-04-13T08:04:49.281Z,99024.34
2023-04-13T08:05:30.001Z,99019.16
2023-04-13T08:06:16.804Z,99021.22
2023-04-13T08:06:58.054Z,99026.31
2023-04-13T08:07:38.086Z,99028.72
2023-04-13T08:08:18.068Z,99032.03
2023-04-13T08:09:00.329Z,99033.53
2023-04-13T08:09:48.984Z,99034.38
2023-04-13T08:10:29.139Z,99038.66
2023-04-13T08:11:10.055Z,99035.63
2023-04-13T08:11:50.390Z,99047.13
2023-04-13T08:12:31.082Z,99044.81
2023-04-13T08:13:11.371Z,99042.00
2023-04-13T08:13:53.041Z,99043.69
2023-04-13T08:14:33.146Z,99039.16
2023-04-13T08:15:14.049Z,99042.66
2023-04-13T08:15:57.265Z,99039.41
2023-04-13T08:16:41.089Z,99044.03
2023-04-13T08:17:22.454Z,99044.16
2023-04-13T08:18:05.058Z,99040.28